DRZA/AJY METAR and TAF weather

Enter ICAO airport designator
Station Type Date Time Source
DRZA METAR 2019/02/22 18:00 UTC NOAA

DRZA 221800Z 26004KT 4000 DU NSC 32/00 Q1011


Station Type Date Time Source
DRZA Decoded METAR 2019/02/22 18:00 UTC NOAA

Agadez, Niger (DRZA) 16-58N 007-59E 502M
Feb 22, 2019 - 01:00 PM EST / 2019.02.22 1800 UTC
Wind: from the W (260 degrees) at 5 MPH (4 KT):0
Visibility: 2 mile(s):0
Weather: widespread dust
Temperature: 89 F (32 C)
Dew Point: 32 F (0 C)
Relative Humidity: 12%
Pressure (altimeter): 29.85 in. Hg (1011 hPa)
ob: DRZA 221800Z 26004KT 4000 DU NSC 32/00 Q1011
cycle: 18

Station Type Date Time Source
DRZA TAF 2019/02/22 18:21 UTC NOAA

TAF DRZA 221700Z 2218/2318 34010KT CAVOK
TEMPO 2308/2314 36020KT 3000 BLDU


Example: see airport list